Rapid City, SD (57702)

11:59 AM MST on January 23, 2017 (GMT -0700)
Cedar Drive | | Change Station
Active Advisory: Winter Storm Watch

Elev 3465 ft 44.07 °N, 103.29 °W | Updated 5 seconds ago

Snow
Snow
29.3 °F
Feels Like 29 °F
N
0.0
Wind Variable Wind from SSE
Gusts 0.0 mph

Today
High -- | Low -- °F
--% Chance of Precip.
Yesterday
High -- | Low -- °F
Precip. -- in
Pressure 29.76 in
Visibility 10.0 miles
Clouds Overcast 300 ft
Windchill 29 °F
Dew Point 22 °F
Humidity 73%
Rainfall 0.00 in
Snow Depth Not available.
7:19 AM 4:51 PM
Waning Crescent, 17% visible
METAR KRCA 231758Z AUTO VRB03KT 10SM OVC003 M05/M05 A2964 RMK AO2 SLP078 T10481049 11046 21066 55004 $
Pressure 29.76 in
Visibility 10.0 miles
Clouds Overcast 300 ft
Windchill 29 °F
Dew Point 22 °F
Humidity 73%
Rainfall 0.00 in
Snow Depth Not available.
7:19 AM 4:51 PM
Waning Crescent, 17% visible
METAR KRCA 231758Z AUTO VRB03KT 10SM OVC003 M05/M05 A2964 RMK AO2 SLP078 T10481049 11046 21066 55004 $

Get Your Daily Forecast Email!

Thanks for signing up!

Be on the lookout for a verification email in your inbox.

You'll start receiving the daily forecast at 8 AM.

×

10-Day Weather Forecast

Almanac

Astronomy

Jan. 23, 2017 Rise Set
Actual Time
Civil Twilight
Nautical Twilight
Astronomical Twilight
Moon
Length of Visible Light
Length of Day
Tomorrow will be .
, % of the Moon is Illuminated

Today's Extremes

State Highs State Lows

Community

WunderPhotos

Upload Photos

1,962,540 photos uploaded!

WunderBlog® & News

Nearby

Air Quality

  Air Quality AQ Index Pollutant
Not available.

Snow Depth

Station Depth Elevation

Earthquake Activity

City Distance Mag. Time & Date
Minimum magnitude displayed is 2.5.

Coastal Water Temperatures

Place Temperature

Stations

Nearby Weather Stations

Station Location Temp. Windchill Dew Point Humidity Wind Precip. Elev Updated Type
                   

Watches & Warnings

Winter Storm Watch
Issued: 4:18 AM CST Jan. 23, 2017 – National Weather Service

... Winter Storm Watch remains in effect from this evening through
late Tuesday night...

* snow is expected from late tonight through Tuesday night.

* Total snow accumulations in excess of 6 inches are
possible... especially over south central South Dakota.

* Gusty northerly winds are likely... supporting blowing and
drifting snow and leading to difficult travel.

Precautionary/preparedness actions...

A Winter Storm Watch means there is potential for significant
snow... sleet or ice accumulations that may impact travel.
Continue to monitor the latest forecasts.